sensor_id;sensor_type;location;lat;lon;timestamp;pressure;altitude;pressure_sealevel;temperature
25514;BMP180;48128;54.242;10.280;2022-08-04T00:00:20;101088.00;;;18.90
25514;BMP180;48128;54.242;10.280;2022-08-04T00:03:12;101081.00;;;18.80
25514;BMP180;48128;54.242;10.280;2022-08-04T00:06:06;101081.00;;;18.80
25514;BMP180;48128;54.242;10.280;2022-08-04T00:09:58;101083.00;;;18.80
25514;BMP180;48128;54.242;10.280;2022-08-04T00:12:00;101088.00;;;18.80
25514;BMP180;48128;54.242;10.280;2022-08-04T00:14:29;101079.00;;;18.70
25514;BMP180;48128;54.242;10.280;2022-08-04T00:16:58;101080.00;;;18.70
25514;BMP180;48128;54.242;10.280;2022-08-04T00:19:31;101067.00;;;18.70
25514;BMP180;48128;54.242;10.280;2022-08-04T00:22:04;101077.00;;;18.70
25514;BMP180;48128;54.242;10.280;2022-08-04T00:24:32;101079.00;;;18.70
25514;BMP180;48128;54.242;10.280;2022-08-04T00:26:59;101072.00;;;18.60
25514;BMP180;48128;54.242;10.280;2022-08-04T00:29:26;101077.00;;;18.60
25514;BMP180;48128;54.242;10.280;2022-08-04T00:31:54;101067.00;;;18.60
25514;BMP180;48128;54.242;10.280;2022-08-04T00:34:25;101064.00;;;18.50
25514;BMP180;48128;54.242;10.280;2022-08-04T00:36:53;101064.00;;;18.50
25514;BMP180;48128;54.242;10.280;2022-08-04T00:39:21;101062.00;;;18.50
25514;BMP180;48128;54.242;10.280;2022-08-04T00:42:15;101058.00;;;18.50
25514;BMP180;48128;54.242;10.280;2022-08-04T00:58:46;101061.00;;;18.40
25514;BMP180;48128;54.242;10.280;2022-08-04T01:04:23;101053.00;;;18.30
25514;BMP180;48128;54.242;10.280;2022-08-04T01:15:59;101043.00;;;18.20
25514;BMP180;48128;54.242;10.280;2022-08-04T01:18:35;101037.00;;;18.20
25514;BMP180;48128;54.242;10.280;2022-08-04T01:27:03;101041.00;;;18.10
25514;BMP180;48128;54.242;10.280;2022-08-04T01:29:34;101027.00;;;18.10
25514;BMP180;48128;54.242;10.280;2022-08-04T01:32:26;101022.00;;;18.10
25514;BMP180;48128;54.242;10.280;2022-08-04T01:35:03;101019.00;;;18.10
25514;BMP180;48128;54.242;10.280;2022-08-04T01:38:02;101016.00;;;18.10
25514;BMP180;48128;54.242;10.280;2022-08-04T01:40:48;101014.00;;;18.10
25514;BMP180;48128;54.242;10.280;2022-08-04T01:43:16;101007.00;;;18.10
25514;BMP180;48128;54.242;10.280;2022-08-04T01:45:43;101002.00;;;18.00
25514;BMP180;48128;54.242;10.280;2022-08-04T01:48:13;101001.00;;;18.00
25514;BMP180;48128;54.242;10.280;2022-08-04T01:50:41;101000.00;;;17.90
25514;BMP180;48128;54.242;10.280;2022-08-04T01:53:08;101009.00;;;17.90
25514;BMP180;48128;54.242;10.280;2022-08-04T01:55:36;101009.00;;;17.90
25514;BMP180;48128;54.242;10.280;2022-08-04T01:58:21;101011.00;;;17.80
25514;BMP180;48128;54.242;10.280;2022-08-04T02:01:09;101007.00;;;17.80
25514;BMP180;48128;54.242;10.280;2022-08-04T02:03:38;101005.00;;;17.80
25514;BMP180;48128;54.242;10.280;2022-08-04T02:06:49;100997.00;;;17.80
25514;BMP180;48128;54.242;10.280;2022-08-04T02:20:22;100985.00;;;17.80
25514;BMP180;48128;54.242;10.280;2022-08-04T02:22:57;100981.00;;;17.70
25514;BMP180;48128;54.242;10.280;2022-08-04T02:25:26;100991.00;;;17.70
25514;BMP180;48128;54.242;10.280;2022-08-04T02:28:20;100985.00;;;17.70
25514;BMP180;48128;54.242;10.280;2022-08-04T02:33:45;100978.00;;;17.60
25514;BMP180;48128;54.242;10.280;2022-08-04T02:36:23;100982.00;;;17.60
25514;BMP180;48128;54.242;10.280;2022-08-04T02:39:00;100975.00;;;17.60
25514;BMP180;48128;54.242;10.280;2022-08-04T02:41:29;100973.00;;;17.70
25514;BMP180;48128;54.242;10.280;2022-08-04T02:43:58;100978.00;;;17.70
25514;BMP180;48128;54.242;10.280;2022-08-04T02:46:26;100966.00;;;17.70
25514;BMP180;48128;54.242;10.280;2022-08-04T02:48:54;100968.00;;;17.60
25514;BMP180;48128;54.242;10.280;2022-08-04T02:51:44;100963.00;;;17.60
25514;BMP180;48128;54.242;10.280;2022-08-04T02:54:11;100973.00;;;17.60
25514;BMP180;48128;54.242;10.280;2022-08-04T02:56:55;100961.00;;;17.50
25514;BMP180;48128;54.242;10.280;2022-08-04T02:59:25;100965.00;;;17.50
25514;BMP180;48128;54.242;10.280;2022-08-04T03:01:55;100956.00;;;17.50
25514;BMP180;48128;54.242;10.280;2022-08-04T03:05:05;100957.00;;;17.50
25514;BMP180;48128;54.242;10.280;2022-08-04T03:08:06;100966.00;;;17.40
25514;BMP180;48128;54.242;10.280;2022-08-04T03:11:01;100958.00;;;17.40
25514;BMP180;48128;54.242;10.280;2022-08-04T03:19:37;100951.00;;;17.40
25514;BMP180;48128;54.242;10.280;2022-08-04T03:25:11;100955.00;;;17.40
25514;BMP180;48128;54.242;10.280;2022-08-04T03:28:07;100948.00;;;17.30
25514;BMP180;48128;54.242;10.280;2022-08-04T03:31:24;100956.00;;;17.30
25514;BMP180;48128;54.242;10.280;2022-08-04T03:39:49;100953.00;;;17.20
25514;BMP180;48128;54.242;10.280;2022-08-04T03:51:16;100960.00;;;17.20
25514;BMP180;48128;54.242;10.280;2022-08-04T04:08:46;100939.00;;;17.20
25514;BMP180;48128;54.242;10.280;2022-08-04T04:11:32;100937.00;;;17.20
25514;BMP180;48128;54.242;10.280;2022-08-04T04:23:08;100956.00;;;17.20
25514;BMP180;48128;54.242;10.280;2022-08-04T04:26:03;100951.00;;;17.20
25514;BMP180;48128;54.242;10.280;2022-08-04T04:29:01;100952.00;;;17.20
25514;BMP180;48128;54.242;10.280;2022-08-04T04:31:37;100949.00;;;17.20
25514;BMP180;48128;54.242;10.280;2022-08-04T04:34:42;100952.00;;;17.20
25514;BMP180;48128;54.242;10.280;2022-08-04T04:37:19;100943.00;;;17.20
25514;BMP180;48128;54.242;10.280;2022-08-04T04:40:12;100942.00;;;17.30
25514;BMP180;48128;54.242;10.280;2022-08-04T04:45:21;100942.00;;;17.30
25514;BMP180;48128;54.242;10.280;2022-08-04T04:48:14;100938.00;;;17.30
25514;BMP180;48128;54.242;10.280;2022-08-04T04:54:03;100934.00;;;17.40
25514;BMP180;48128;54.242;10.280;2022-08-04T04:59:02;100932.00;;;17.50
25514;BMP180;48128;54.242;10.280;2022-08-04T05:15:34;100932.00;;;18.00
25514;BMP180;48128;54.242;10.280;2022-08-04T05:18:03;100927.00;;;18.10
25514;BMP180;48128;54.242;10.280;2022-08-04T05:20:40;100934.00;;;18.30
25514;BMP180;48128;54.242;10.280;2022-08-04T05:23:14;100941.00;;;18.40
25514;BMP180;48128;54.242;10.280;2022-08-04T05:25:44;100936.00;;;18.50
25514;BMP180;48128;54.242;10.280;2022-08-04T05:28:42;100943.00;;;18.60
25514;BMP180;48128;54.242;10.280;2022-08-04T05:31:13;100931.00;;;18.70
25514;BMP180;48128;54.242;10.280;2022-08-04T05:33:51;100933.00;;;18.80
25514;BMP180;48128;54.242;10.280;2022-08-04T05:36:22;100933.00;;;18.90
25514;BMP180;48128;54.242;10.280;2022-08-04T05:39:11;100934.00;;;18.90
25514;BMP180;48128;54.242;10.280;2022-08-04T05:41:39;100930.00;;;19.00
25514;BMP180;48128;54.242;10.280;2022-08-04T05:44:15;100928.00;;;19.00
25514;BMP180;48128;54.242;10.280;2022-08-04T05:46:46;100925.00;;;19.10
25514;BMP180;48128;54.242;10.280;2022-08-04T05:49:21;100923.00;;;19.20
25514;BMP180;48128;54.242;10.280;2022-08-04T05:51:48;100913.00;;;19.30
25514;BMP180;48128;54.242;10.280;2022-08-04T05:54:16;100914.00;;;19.40
25514;BMP180;48128;54.242;10.280;2022-08-04T05:56:44;100908.00;;;19.40
25514;BMP180;48128;54.242;10.280;2022-08-04T05:59:11;100919.00;;;19.50
25514;BMP180;48128;54.242;10.280;2022-08-04T06:01:40;100908.00;;;19.60
25514;BMP180;48128;54.242;10.280;2022-08-04T06:04:29;100920.00;;;19.60
25514;BMP180;48128;54.242;10.280;2022-08-04T06:06:57;100909.00;;;19.60
25514;BMP180;48128;54.242;10.280;2022-08-04T06:09:23;100916.00;;;19.70
25514;BMP180;48128;54.242;10.280;2022-08-04T06:11:50;100918.00;;;19.80
25514;BMP180;48128;54.242;10.280;2022-08-04T06:14:49;100918.00;;;19.90
25514;BMP180;48128;54.242;10.280;2022-08-04T06:17:25;100914.00;;;20.00
25514;BMP180;48128;54.242;10.280;2022-08-04T06:20:16;100921.00;;;20.10
25514;BMP180;48128;54.242;10.280;2022-08-04T06:22:53;100920.00;;;20.20
25514;BMP180;48128;54.242;10.280;2022-08-04T06:25:28;100915.00;;;20.30
25514;BMP180;48128;54.242;10.280;2022-08-04T06:27:56;100924.00;;;20.40
25514;BMP180;48128;54.242;10.280;2022-08-04T06:30:27;100929.00;;;20.50
25514;BMP180;48128;54.242;10.280;2022-08-04T06:33:01;100929.00;;;20.60
25514;BMP180;48128;54.242;10.280;2022-08-04T06:35:43;100926.00;;;20.70
25514;BMP180;48128;54.242;10.280;2022-08-04T06:38:10;100931.00;;;20.70
25514;BMP180;48128;54.242;10.280;2022-08-04T06:40:38;100936.00;;;20.90
25514;BMP180;48128;54.242;10.280;2022-08-04T06:43:06;100941.00;;;21.00
25514;BMP180;48128;54.242;10.280;2022-08-04T06:45:36;100948.00;;;21.20
25514;BMP180;48128;54.242;10.280;2022-08-04T06:48:04;100944.00;;;21.30
25514;BMP180;48128;54.242;10.280;2022-08-04T06:50:35;100940.00;;;21.40
25514;BMP180;48128;54.242;10.280;2022-08-04T06:53:25;100944.00;;;21.50
25514;BMP180;48128;54.242;10.280;2022-08-04T06:55:53;100950.00;;;21.70
25514;BMP180;48128;54.242;10.280;2022-08-04T06:58:20;100943.00;;;21.80
25514;BMP180;48128;54.242;10.280;2022-08-04T07:00:48;100948.00;;;21.90
25514;BMP180;48128;54.242;10.280;2022-08-04T07:03:16;100946.00;;;22.10
25514;BMP180;48128;54.242;10.280;2022-08-04T07:05:46;100928.00;;;22.20
25514;BMP180;48128;54.242;10.280;2022-08-04T07:08:13;100949.00;;;22.30
25514;BMP180;48128;54.242;10.280;2022-08-04T07:10:40;100943.00;;;22.40
25514;BMP180;48128;54.242;10.280;2022-08-04T07:13:08;100957.00;;;22.60
25514;BMP180;48128;54.242;10.280;2022-08-04T07:15:35;100962.00;;;22.70
25514;BMP180;48128;54.242;10.280;2022-08-04T07:18:04;100959.00;;;22.80
25514;BMP180;48128;54.242;10.280;2022-08-04T07:20:31;100966.00;;;22.90
25514;BMP180;48128;54.242;10.280;2022-08-04T07:23:06;100979.00;;;23.00
25514;BMP180;48128;54.242;10.280;2022-08-04T07:25:34;100980.00;;;23.10
25514;BMP180;48128;54.242;10.280;2022-08-04T07:28:26;100984.00;;;23.30
25514;BMP180;48128;54.242;10.280;2022-08-04T07:30:54;100982.00;;;23.40
25514;BMP180;48128;54.242;10.280;2022-08-04T07:33:32;100985.00;;;23.60
25514;BMP180;48128;54.242;10.280;2022-08-04T07:36:00;100972.00;;;23.70
25514;BMP180;48128;54.242;10.280;2022-08-04T07:38:35;100980.00;;;23.80
25514;BMP180;48128;54.242;10.280;2022-08-04T07:41:23;100980.00;;;23.90
25514;BMP180;48128;54.242;10.280;2022-08-04T07:44:08;100978.00;;;24.00
25514;BMP180;48128;54.242;10.280;2022-08-04T07:46:36;100985.00;;;24.20
25514;BMP180;48128;54.242;10.280;2022-08-04T07:49:03;100974.00;;;24.20
25514;BMP180;48128;54.242;10.280;2022-08-04T07:51:31;100964.00;;;24.40
25514;BMP180;48128;54.242;10.280;2022-08-04T07:53:58;100983.00;;;24.50
25514;BMP180;48128;54.242;10.280;2022-08-04T07:56:26;100984.00;;;24.60
25514;BMP180;48128;54.242;10.280;2022-08-04T07:58:53;100976.00;;;24.80
25514;BMP180;48128;54.242;10.280;2022-08-04T08:01:22;100974.00;;;24.90
25514;BMP180;48128;54.242;10.280;2022-08-04T08:03:50;100960.00;;;25.00
25514;BMP180;48128;54.242;10.280;2022-08-04T08:06:17;100983.00;;;25.20
25514;BMP180;48128;54.242;10.280;2022-08-04T08:09:00;100971.00;;;25.40
25514;BMP180;48128;54.242;10.280;2022-08-04T08:11:40;100957.00;;;25.50
25514;BMP180;48128;54.242;10.280;2022-08-04T08:14:28;100962.00;;;25.70
25514;BMP180;48128;54.242;10.280;2022-08-04T08:17:00;100983.00;;;25.80
25514;BMP180;48128;54.242;10.280;2022-08-04T08:19:32;100970.00;;;26.00
25514;BMP180;48128;54.242;10.280;2022-08-04T08:22:00;100984.00;;;26.10
25514;BMP180;48128;54.242;10.280;2022-08-04T08:24:28;100990.00;;;26.40
25514;BMP180;48128;54.242;10.280;2022-08-04T08:26:58;100989.00;;;26.60
25514;BMP180;48128;54.242;10.280;2022-08-04T08:29:32;100986.00;;;26.80
25514;BMP180;48128;54.242;10.280;2022-08-04T08:32:01;100984.00;;;27.00
25514;BMP180;48128;54.242;10.280;2022-08-04T08:34:34;101007.00;;;27.10
25514;BMP180;48128;54.242;10.280;2022-08-04T08:37:17;100985.00;;;27.20
25514;BMP180;48128;54.242;10.280;2022-08-04T08:39:51;100992.00;;;27.30
25514;BMP180;48128;54.242;10.280;2022-08-04T08:45:43;100989.00;;;27.40
25514;BMP180;48128;54.242;10.280;2022-08-04T08:54:20;100995.00;;;28.00
25514;BMP180;48128;54.242;10.280;2022-08-04T08:57:10;101006.00;;;28.30
25514;BMP180;48128;54.242;10.280;2022-08-04T09:08:06;100994.00;;;28.90
25514;BMP180;48128;54.242;10.280;2022-08-04T09:13:20;100998.00;;;29.20
25514;BMP180;48128;54.242;10.280;2022-08-04T09:21:09;101022.00;;;29.90
25514;BMP180;48128;54.242;10.280;2022-08-04T09:26:31;101008.00;;;30.30
25514;BMP180;48128;54.242;10.280;2022-08-04T09:40:44;100975.00;;;30.40
25514;BMP180;48128;54.242;10.280;2022-08-04T09:44:00;100989.00;;;30.30
25514;BMP180;48128;54.242;10.280;2022-08-04T09:47:24;100985.00;;;30.10
25514;BMP180;48128;54.242;10.280;2022-08-04T09:50:44;100990.00;;;30.40
25514;BMP180;48128;54.242;10.280;2022-08-04T10:01:13;100982.00;;;30.10
25514;BMP180;48128;54.242;10.280;2022-08-04T10:03:54;100998.00;;;29.90
25514;BMP180;48128;54.242;10.280;2022-08-04T10:10:16;100976.00;;;29.90
25514;BMP180;48128;54.242;10.280;2022-08-04T10:13:28;100969.00;;;30.10
25514;BMP180;48128;54.242;10.280;2022-08-04T10:18:58;100965.00;;;30.50
25514;BMP180;48128;54.242;10.280;2022-08-04T10:29:49;100962.00;;;31.60
25514;BMP180;48128;54.242;10.280;2022-08-04T10:32:22;100978.00;;;31.60
25514;BMP180;48128;54.242;10.280;2022-08-04T10:35:13;100968.00;;;31.70
25514;BMP180;48128;54.242;10.280;2022-08-04T10:40:46;100942.00;;;31.70
25514;BMP180;48128;54.242;10.280;2022-08-04T10:46:04;100965.00;;;32.20
25514;BMP180;48128;54.242;10.280;2022-08-04T10:51:48;101005.00;;;32.60
25514;BMP180;48128;54.242;10.280;2022-08-04T10:54:42;100983.00;;;32.50
25514;BMP180;48128;54.242;10.280;2022-08-04T10:57:33;100984.00;;;32.80
25514;BMP180;48128;54.242;10.280;2022-08-04T11:00:04;100983.00;;;33.00
25514;BMP180;48128;54.242;10.280;2022-08-04T11:02:40;100976.00;;;33.10
25514;BMP180;48128;54.242;10.280;2022-08-04T11:05:15;100958.00;;;32.90
25514;BMP180;48128;54.242;10.280;2022-08-04T11:07:45;100971.00;;;33.00
25514;BMP180;48128;54.242;10.280;2022-08-04T11:10:12;100967.00;;;33.30
25514;BMP180;48128;54.242;10.280;2022-08-04T11:12:42;100945.00;;;33.40
25514;BMP180;48128;54.242;10.280;2022-08-04T11:15:17;100929.00;;;33.50
25514;BMP180;48128;54.242;10.280;2022-08-04T11:17:58;100951.00;;;33.10
25514;BMP180;48128;54.242;10.280;2022-08-04T11:20:48;100920.00;;;33.10
25514;BMP180;48128;54.242;10.280;2022-08-04T11:23:17;100923.00;;;33.10
25514;BMP180;48128;54.242;10.280;2022-08-04T11:28:32;100918.00;;;33.20
25514;BMP180;48128;54.242;10.280;2022-08-04T11:31:07;100930.00;;;33.50
25514;BMP180;48128;54.242;10.280;2022-08-04T11:33:51;100901.00;;;33.60
25514;BMP180;48128;54.242;10.280;2022-08-04T11:37:12;100887.00;;;33.70
25514;BMP180;48128;54.242;10.280;2022-08-04T11:42:26;100898.00;;;33.50
25514;BMP180;48128;54.242;10.280;2022-08-04T11:45:09;100924.00;;;33.40
25514;BMP180;48128;54.242;10.280;2022-08-04T11:48:12;100919.00;;;33.30
25514;BMP180;48128;54.242;10.280;2022-08-04T11:50:50;100917.00;;;33.50
25514;BMP180;48128;54.242;10.280;2022-08-04T11:53:25;100901.00;;;33.60
25514;BMP180;48128;54.242;10.280;2022-08-04T11:56:04;100919.00;;;33.60
25514;BMP180;48128;54.242;10.280;2022-08-04T11:58:35;100906.00;;;33.40
25514;BMP180;48128;54.242;10.280;2022-08-04T12:01:10;100916.00;;;33.20
25514;BMP180;48128;54.242;10.280;2022-08-04T12:12:38;100925.00;;;33.20
25514;BMP180;48128;54.242;10.280;2022-08-04T12:15:19;100891.00;;;33.30
25514;BMP180;48128;54.242;10.280;2022-08-04T12:20:59;100865.00;;;32.90
25514;BMP180;48128;54.242;10.280;2022-08-04T12:23:34;100865.00;;;32.80
25514;BMP180;48128;54.242;10.280;2022-08-04T12:26:06;100876.00;;;32.50
25514;BMP180;48128;54.242;10.280;2022-08-04T12:28:35;100864.00;;;32.30
25514;BMP180;48128;54.242;10.280;2022-08-04T12:32:15;100875.00;;;32.10
25514;BMP180;48128;54.242;10.280;2022-08-04T12:34:26;100864.00;;;31.90
25514;BMP180;48128;54.242;10.280;2022-08-04T12:39:52;100835.00;;;31.60
25514;BMP180;48128;54.242;10.280;2022-08-04T12:43:05;100848.00;;;31.60
25514;BMP180;48128;54.242;10.280;2022-08-04T12:45:34;100863.00;;;32.00
25514;BMP180;48128;54.242;10.280;2022-08-04T12:48:01;100829.00;;;31.90
25514;BMP180;48128;54.242;10.280;2022-08-04T12:50:30;100865.00;;;31.70
25514;BMP180;48128;54.242;10.280;2022-08-04T12:52:57;100831.00;;;31.60
25514;BMP180;48128;54.242;10.280;2022-08-04T12:55:29;100825.00;;;31.40
25514;BMP180;48128;54.242;10.280;2022-08-04T12:57:57;100830.00;;;31.20
25514;BMP180;48128;54.242;10.280;2022-08-04T13:00:31;100821.00;;;31.40
25514;BMP180;48128;54.242;10.280;2022-08-04T13:03:10;100822.00;;;31.70
25514;BMP180;48128;54.242;10.280;2022-08-04T13:05:38;100831.00;;;31.90
25514;BMP180;48128;54.242;10.280;2022-08-04T13:08:06;100817.00;;;32.10
25514;BMP180;48128;54.242;10.280;2022-08-04T13:10:37;100831.00;;;32.30
25514;BMP180;48128;54.242;10.280;2022-08-04T13:13:05;100821.00;;;32.30
25514;BMP180;48128;54.242;10.280;2022-08-04T13:15:37;100776.00;;;32.10
25514;BMP180;48128;54.242;10.280;2022-08-04T13:18:25;100833.00;;;32.10
25514;BMP180;48128;54.242;10.280;2022-08-04T13:21:17;100814.00;;;32.00
25514;BMP180;48128;54.242;10.280;2022-08-04T13:24:07;100828.00;;;32.20
25514;BMP180;48128;54.242;10.280;2022-08-04T13:27:03;100817.00;;;32.20
25514;BMP180;48128;54.242;10.280;2022-08-04T13:29:39;100818.00;;;32.40
25514;BMP180;48128;54.242;10.280;2022-08-04T13:32:26;100793.00;;;32.70
25514;BMP180;48128;54.242;10.280;2022-08-04T13:34:55;100805.00;;;33.10
25514;BMP180;48128;54.242;10.280;2022-08-04T13:37:32;100814.00;;;33.30
25514;BMP180;48128;54.242;10.280;2022-08-04T13:40:02;100833.00;;;33.50
25514;BMP180;48128;54.242;10.280;2022-08-04T13:42:30;100814.00;;;33.70
25514;BMP180;48128;54.242;10.280;2022-08-04T13:45:02;100832.00;;;33.80
25514;BMP180;48128;54.242;10.280;2022-08-04T13:47:31;100810.00;;;33.90
25514;BMP180;48128;54.242;10.280;2022-08-04T13:50:07;100822.00;;;34.10
25514;BMP180;48128;54.242;10.280;2022-08-04T13:52:39;100813.00;;;34.10
25514;BMP180;48128;54.242;10.280;2022-08-04T13:55:06;100808.00;;;34.10
25514;BMP180;48128;54.242;10.280;2022-08-04T13:57:42;100830.00;;;34.20
25514;BMP180;48128;54.242;10.280;2022-08-04T14:00:09;100804.00;;;34.20
25514;BMP180;48128;54.242;10.280;2022-08-04T14:02:46;100801.00;;;34.30
25514;BMP180;48128;54.242;10.280;2022-08-04T14:05:18;100800.00;;;34.20
25514;BMP180;48128;54.242;10.280;2022-08-04T14:10:33;100797.00;;;34.20
25514;BMP180;48128;54.242;10.280;2022-08-04T14:13:02;100800.00;;;34.40
25514;BMP180;48128;54.242;10.280;2022-08-04T14:15:35;100793.00;;;34.40
25514;BMP180;48128;54.242;10.280;2022-08-04T14:18:29;100793.00;;;34.50
25514;BMP180;48128;54.242;10.280;2022-08-04T14:23:25;100793.00;;;34.40
25514;BMP180;48128;54.242;10.280;2022-08-04T14:25:59;100780.00;;;34.20
25514;BMP180;48128;54.242;10.280;2022-08-04T14:28:27;100775.00;;;34.10
25514;BMP180;48128;54.242;10.280;2022-08-04T14:31:17;100774.00;;;33.80
25514;BMP180;48128;54.242;10.280;2022-08-04T14:33:45;100759.00;;;33.50
25514;BMP180;48128;54.242;10.280;2022-08-04T14:36:43;100788.00;;;33.50
25514;BMP180;48128;54.242;10.280;2022-08-04T14:39:41;100772.00;;;33.60
25514;BMP180;48128;54.242;10.280;2022-08-04T14:42:44;100771.00;;;33.60
25514;BMP180;48128;54.242;10.280;2022-08-04T14:45:34;100766.00;;;33.40
25514;BMP180;48128;54.242;10.280;2022-08-04T14:48:06;100753.00;;;33.20
25514;BMP180;48128;54.242;10.280;2022-08-04T14:50:38;100759.00;;;33.10
25514;BMP180;48128;54.242;10.280;2022-08-04T14:53:14;100771.00;;;32.90
25514;BMP180;48128;54.242;10.280;2022-08-04T14:55:51;100762.00;;;32.80
25514;BMP180;48128;54.242;10.280;2022-08-04T14:58:26;100751.00;;;32.60
25514;BMP180;48128;54.242;10.280;2022-08-04T15:01:04;100728.00;;;32.40
25514;BMP180;48128;54.242;10.280;2022-08-04T15:03:42;100706.00;;;32.20
25514;BMP180;48128;54.242;10.280;2022-08-04T15:06:20;100695.00;;;32.10
25514;BMP180;48128;54.242;10.280;2022-08-04T15:08:50;100692.00;;;32.00
25514;BMP180;48128;54.242;10.280;2022-08-04T15:11:18;100706.00;;;31.80
25514;BMP180;48128;54.242;10.280;2022-08-04T15:13:53;100708.00;;;31.60
25514;BMP180;48128;54.242;10.280;2022-08-04T15:16:23;100722.00;;;31.30
25514;BMP180;48128;54.242;10.280;2022-08-04T15:18:51;100730.00;;;31.00
25514;BMP180;48128;54.242;10.280;2022-08-04T15:21:23;100731.00;;;30.60
25514;BMP180;48128;54.242;10.280;2022-08-04T15:23:51;100747.00;;;30.30
25514;BMP180;48128;54.242;10.280;2022-08-04T15:28:52;100753.00;;;29.80
25514;BMP180;48128;54.242;10.280;2022-08-04T15:31:20;100735.00;;;29.50
25514;BMP180;48128;54.242;10.280;2022-08-04T15:34:08;100728.00;;;29.30
25514;BMP180;48128;54.242;10.280;2022-08-04T15:39:34;100724.00;;;29.10
25514;BMP180;48128;54.242;10.280;2022-08-04T15:47:17;100709.00;;;28.80
25514;BMP180;48128;54.242;10.280;2022-08-04T15:49:44;100695.00;;;28.60
25514;BMP180;48128;54.242;10.280;2022-08-04T15:52:12;100698.00;;;28.50
25514;BMP180;48128;54.242;10.280;2022-08-04T15:54:42;100715.00;;;28.30
25514;BMP180;48128;54.242;10.280;2022-08-04T15:57:57;100738.00;;;28.10
25514;BMP180;48128;54.242;10.280;2022-08-04T16:00:25;100750.00;;;28.00
25514;BMP180;48128;54.242;10.280;2022-08-04T16:02:52;100768.00;;;27.90
25514;BMP180;48128;54.242;10.280;2022-08-04T16:07:57;100808.00;;;27.70
25514;BMP180;48128;54.242;10.280;2022-08-04T16:13:11;100821.00;;;27.50
25514;BMP180;48128;54.242;10.280;2022-08-04T16:15:42;100833.00;;;27.40
25514;BMP180;48128;54.242;10.280;2022-08-04T16:18:10;100826.00;;;27.40
25514;BMP180;48128;54.242;10.280;2022-08-04T16:20:57;100844.00;;;27.30
25514;BMP180;48128;54.242;10.280;2022-08-04T16:27:07;100849.00;;;27.00
25514;BMP180;48128;54.242;10.280;2022-08-04T16:29:37;100845.00;;;26.90
25514;BMP180;48128;54.242;10.280;2022-08-04T16:37:26;100837.00;;;26.80
25514;BMP180;48128;54.242;10.280;2022-08-04T16:42:49;100820.00;;;26.60
25514;BMP180;48128;54.242;10.280;2022-08-04T16:45:17;100810.00;;;26.50
25514;BMP180;48128;54.242;10.280;2022-08-04T16:50:18;100847.00;;;26.20
25514;BMP180;48128;54.242;10.280;2022-08-04T16:52:47;100855.00;;;26.10
25514;BMP180;48128;54.242;10.280;2022-08-04T16:55:21;100851.00;;;26.00
25514;BMP180;48128;54.242;10.280;2022-08-04T16:57:51;100855.00;;;26.00
25514;BMP180;48128;54.242;10.280;2022-08-04T17:00:30;100831.00;;;25.90
25514;BMP180;48128;54.242;10.280;2022-08-04T17:03:00;100827.00;;;25.80
25514;BMP180;48128;54.242;10.280;2022-08-04T17:05:27;100836.00;;;25.80
25514;BMP180;48128;54.242;10.280;2022-08-04T17:08:07;100838.00;;;25.90
25514;BMP180;48128;54.242;10.280;2022-08-04T17:10:54;100839.00;;;26.10
25514;BMP180;48128;54.242;10.280;2022-08-04T17:13:40;100851.00;;;26.20
25514;BMP180;48128;54.242;10.280;2022-08-04T17:16:28;100874.00;;;26.20
25514;BMP180;48128;54.242;10.280;2022-08-04T17:18:55;100874.00;;;26.20
25514;BMP180;48128;54.242;10.280;2022-08-04T17:21:28;100854.00;;;26.10
25514;BMP180;48128;54.242;10.280;2022-08-04T17:23:57;100849.00;;;26.00
25514;BMP180;48128;54.242;10.280;2022-08-04T17:26:44;100830.00;;;25.80
25514;BMP180;48128;54.242;10.280;2022-08-04T17:29:23;100831.00;;;25.60
25514;BMP180;48128;54.242;10.280;2022-08-04T17:32:15;100824.00;;;25.40
25514;BMP180;48128;54.242;10.280;2022-08-04T17:34:46;100809.00;;;25.30
25514;BMP180;48128;54.242;10.280;2022-08-04T17:37:14;100817.00;;;25.20
25514;BMP180;48128;54.242;10.280;2022-08-04T17:40:06;100795.00;;;25.10
25514;BMP180;48128;54.242;10.280;2022-08-04T17:42:36;100800.00;;;25.00
25514;BMP180;48128;54.242;10.280;2022-08-04T17:45:10;100784.00;;;24.90
25514;BMP180;48128;54.242;10.280;2022-08-04T17:47:57;100778.00;;;24.90
25514;BMP180;48128;54.242;10.280;2022-08-04T17:50:25;100793.00;;;24.80
25514;BMP180;48128;54.242;10.280;2022-08-04T17:53:03;100796.00;;;24.70
25514;BMP180;48128;54.242;10.280;2022-08-04T17:55:43;100808.00;;;24.70
25514;BMP180;48128;54.242;10.280;2022-08-04T18:01:00;100798.00;;;24.70
25514;BMP180;48128;54.242;10.280;2022-08-04T18:03:47;100806.00;;;24.70
25514;BMP180;48128;54.242;10.280;2022-08-04T18:06:21;100846.00;;;24.70
25514;BMP180;48128;54.242;10.280;2022-08-04T18:08:53;100856.00;;;24.60
25514;BMP180;48128;54.242;10.280;2022-08-04T18:11:24;100850.00;;;24.60
25514;BMP180;48128;54.242;10.280;2022-08-04T18:14:08;100849.00;;;24.50
25514;BMP180;48128;54.242;10.280;2022-08-04T18:16:45;100846.00;;;24.40
25514;BMP180;48128;54.242;10.280;2022-08-04T18:19:14;100858.00;;;24.30
25514;BMP180;48128;54.242;10.280;2022-08-04T18:21:45;100848.00;;;24.20
25514;BMP180;48128;54.242;10.280;2022-08-04T18:24:27;100830.00;;;24.10
25514;BMP180;48128;54.242;10.280;2022-08-04T18:27:02;100829.00;;;24.00
25514;BMP180;48128;54.242;10.280;2022-08-04T18:29:33;100837.00;;;23.90
25514;BMP180;48128;54.242;10.280;2022-08-04T18:32:06;100846.00;;;23.80
25514;BMP180;48128;54.242;10.280;2022-08-04T18:34:35;100846.00;;;23.70
25514;BMP180;48128;54.242;10.280;2022-08-04T18:37:20;100856.00;;;23.60
25514;BMP180;48128;54.242;10.280;2022-08-04T18:40:08;100843.00;;;23.50
25514;BMP180;48128;54.242;10.280;2022-08-04T18:42:55;100849.00;;;23.40